createdAt,value
2018-03-22T00:00:33.118Z,5.47
2018-03-22T00:03:00.665Z,5.33
2018-03-22T00:05:28.184Z,5.60
2018-03-22T00:07:56.466Z,5.77
2018-03-22T00:10:24.747Z,6.23
2018-03-22T00:12:52.260Z,5.33
2018-03-22T00:15:20.547Z,5.90
2018-03-22T00:17:48.059Z,5.13
2018-03-22T00:20:16.328Z,5.10
2018-03-22T00:22:44.645Z,5.47
2018-03-22T00:25:12.142Z,5.57
2018-03-22T00:27:39.669Z,5.10
2018-03-22T00:30:07.184Z,5.43
2018-03-22T00:32:34.713Z,5.87
2018-03-22T00:35:02.251Z,5.30
2018-03-22T00:37:29.820Z,5.40
2018-03-22T00:39:57.340Z,5.37
2018-03-22T00:42:24.838Z,5.33
2018-03-22T00:44:52.365Z,5.33
2018-03-22T00:47:19.865Z,5.30
2018-03-22T00:49:47.371Z,5.30
2018-03-22T00:52:14.909Z,5.20
2018-03-22T00:54:42.403Z,5.57
2018-03-22T00:57:09.923Z,4.73
2018-03-22T00:59:37.423Z,5.37
2018-03-22T01:02:04.923Z,5.30
2018-03-22T01:04:32.449Z,5.73
2018-03-22T01:06:59.951Z,5.20
2018-03-22T01:09:27.484Z,5.30
2018-03-22T01:11:54.975Z,5.17
2018-03-22T01:14:22.481Z,5.60
2018-03-22T01:16:50.018Z,5.67
2018-03-22T01:19:17.503Z,5.27
2018-03-22T01:21:45.049Z,5.27
2018-03-22T01:24:12.537Z,5.30
2018-03-22T01:26:40.042Z,5.33
2018-03-22T01:31:29.439Z,5.00
2018-03-22T01:33:56.970Z,4.63
2018-03-22T01:36:24.488Z,5.03
2018-03-22T01:38:52.767Z,5.17
2018-03-22T01:41:21.056Z,5.10
2018-03-22T01:43:48.576Z,5.30
2018-03-22T01:46:16.106Z,5.60
2018-03-22T01:48:43.606Z,5.23
2018-03-22T01:51:11.149Z,4.90
2018-03-22T01:53:38.670Z,5.67
2018-03-22T01:56:06.960Z,5.10
2018-03-22T01:58:35.226Z,4.93
2018-03-22T02:01:03.503Z,5.13
2018-03-22T02:03:31.795Z,5.30
2018-03-22T02:06:00.064Z,5.33
2018-03-22T02:08:28.352Z,5.10
2018-03-22T02:10:56.623Z,5.23
2018-03-22T02:13:24.114Z,4.83
2018-03-22T02:15:51.638Z,4.53
2018-03-22T02:18:19.144Z,4.70
2018-03-22T02:20:47.006Z,5.10
2018-03-22T02:23:14.498Z,4.93
2018-03-22T02:25:42.013Z,4.63
2018-03-22T02:28:10.304Z,5.17
2018-03-22T02:30:37.799Z,5.20
2018-03-22T02:33:05.301Z,5.30
2018-03-22T02:35:32.844Z,4.83
2018-03-22T02:38:00.358Z,5.00
2018-03-22T02:40:28.659Z,4.43
2018-03-22T02:42:56.159Z,4.30
2018-03-22T02:45:23.675Z,4.47
2018-03-22T02:47:51.966Z,4.30
2018-03-22T02:50:19.485Z,5.10
2018-03-22T02:52:47.014Z,4.60
2018-03-22T02:55:14.521Z,5.80
2018-03-22T02:57:42.069Z,5.20
2018-03-22T03:00:09.558Z,5.03
2018-03-22T03:02:37.072Z,4.90
2018-03-22T03:05:04.606Z,4.80
2018-03-22T03:07:32.114Z,5.77
2018-03-22T03:09:59.621Z,5.57
2018-03-22T03:12:27.106Z,5.17
2018-03-22T03:14:54.615Z,5.57
2018-03-22T03:17:23.633Z,5.07
2018-03-22T03:19:51.913Z,5.43
2018-03-22T03:22:20.201Z,5.20
2018-03-22T03:24:48.484Z,4.87
2018-03-22T03:27:15.985Z,4.73
2018-03-22T03:29:43.510Z,4.80
2018-03-22T03:32:11.783Z,5.53
2018-03-22T03:34:40.096Z,4.53
2018-03-22T03:37:07.586Z,5.30
2018-03-22T03:39:35.101Z,5.43
2018-03-22T03:42:02.639Z,5.03
2018-03-22T03:44:30.138Z,4.33
2018-03-22T03:46:57.665Z,4.87
2018-03-22T03:49:25.162Z,5.57
2018-03-22T03:51:52.665Z,4.57
2018-03-22T03:54:20.213Z,4.67
2018-03-22T03:56:47.722Z,4.20
2018-03-22T03:59:15.254Z,4.07
2018-03-22T04:01:42.774Z,4.87
2018-03-22T04:04:11.046Z,4.13
2018-03-22T04:06:38.546Z,3.93
2018-03-22T04:09:06.066Z,4.30
2018-03-22T04:11:34.352Z,3.97
2018-03-22T04:14:01.864Z,4.43
2018-03-22T04:16:29.374Z,4.37
2018-03-22T04:18:56.916Z,4.60
2018-03-22T04:21:24.414Z,4.20
2018-03-22T04:23:52.684Z,4.40
2018-03-22T04:26:20.966Z,4.50
2018-03-22T04:28:48.481Z,5.00
2018-03-22T04:31:15.985Z,4.20
2018-03-22T04:33:43.478Z,4.90
2018-03-22T04:36:10.982Z,4.60
2018-03-22T04:38:38.496Z,4.80
2018-03-22T04:41:06.004Z,5.13
2018-03-22T04:43:33.537Z,4.60
2018-03-22T04:46:01.048Z,4.70
2018-03-22T04:48:28.556Z,4.67
2018-03-22T04:50:56.079Z,4.67
2018-03-22T04:53:23.588Z,4.37
2018-03-22T04:55:51.084Z,4.43
2018-03-22T04:58:18.599Z,4.40
2018-03-22T05:00:46.867Z,4.83
2018-03-22T05:03:15.144Z,4.43
2018-03-22T05:05:43.455Z,4.40
2018-03-22T05:08:10.971Z,4.30
2018-03-22T05:10:38.519Z,4.27
2018-03-22T05:13:06.039Z,3.70
2018-03-22T05:15:33.539Z,4.30
2018-03-22T05:18:01.070Z,4.53
2018-03-22T05:20:28.585Z,5.30
2018-03-22T05:22:56.166Z,4.90
2018-03-22T05:25:23.708Z,5.27
2018-03-22T05:27:51.214Z,5.20
2018-03-22T05:30:18.743Z,5.03
2018-03-22T05:32:46.254Z,4.70
2018-03-22T05:35:13.763Z,4.83
2018-03-22T05:37:41.303Z,5.50
2018-03-22T05:40:08.818Z,5.07
2018-03-22T05:42:36.385Z,5.13
2018-03-22T05:45:04.691Z,5.50
2018-03-22T05:47:32.200Z,4.93
2018-03-22T05:49:59.738Z,4.53
2018-03-22T05:52:27.256Z,4.47
2018-03-22T05:54:54.791Z,4.37
2018-03-22T05:57:22.341Z,4.70
2018-03-22T05:59:49.855Z,4.37
2018-03-22T06:02:18.148Z,4.50
2018-03-22T06:04:45.667Z,5.20
2018-03-22T06:07:13.196Z,4.47
2018-03-22T06:09:40.735Z,4.67
2018-03-22T06:12:08.268Z,5.20
2018-03-22T06:14:35.756Z,5.13
2018-03-22T06:17:03.264Z,4.80
2018-03-22T06:19:30.792Z,5.07
2018-03-22T06:21:58.308Z,4.60
2018-03-22T06:24:25.810Z,5.37
2018-03-22T06:26:53.332Z,5.70
2018-03-22T06:29:20.838Z,6.07
2018-03-22T06:31:48.369Z,5.00
2018-03-22T06:34:15.870Z,5.00
2018-03-22T06:36:43.387Z,4.63
2018-03-22T06:39:10.919Z,4.67
2018-03-22T06:41:38.408Z,5.20
2018-03-22T06:44:05.956Z,5.20
2018-03-22T06:46:33.454Z,5.87
2018-03-22T06:49:00.951Z,5.90
2018-03-22T06:51:28.503Z,5.97
2018-03-22T06:53:56.015Z,5.50
2018-03-22T06:56:23.543Z,5.13
2018-03-22T06:58:51.058Z,5.87
2018-03-22T07:01:18.585Z,5.63
2018-03-22T07:03:46.099Z,5.40
2018-03-22T07:06:13.593Z,5.53
2018-03-22T07:08:41.105Z,5.57
2018-03-22T07:11:08.728Z,6.93
2018-03-22T07:13:36.234Z,6.60
2018-03-22T07:16:03.765Z,6.57
2018-03-22T07:18:31.259Z,7.23
2018-03-22T07:20:58.773Z,5.53
2018-03-22T07:23:26.281Z,5.30
2018-03-22T07:25:53.843Z,4.67
2018-03-22T07:28:21.335Z,4.20
2018-03-22T07:30:48.817Z,3.90
2018-03-22T07:33:16.309Z,4.20
2018-03-22T07:35:43.806Z,3.80
2018-03-22T07:38:11.308Z,4.20
2018-03-22T07:40:38.881Z,4.00
2018-03-22T07:43:11.905Z,3.73
2018-03-22T07:45:39.416Z,4.23
2018-03-22T07:48:06.908Z,4.00
2018-03-22T07:50:34.434Z,4.00
2018-03-22T07:53:01.956Z,3.80
2018-03-22T07:55:29.463Z,3.37
2018-03-22T07:57:56.987Z,4.00
2018-03-22T08:00:24.486Z,3.60
2018-03-22T08:02:53.709Z,3.90
2018-03-22T08:05:21.223Z,3.80
2018-03-22T08:07:48.718Z,4.20
2018-03-22T08:10:16.203Z,3.63
2018-03-22T08:12:43.720Z,3.87
2018-03-22T08:15:11.535Z,4.53
2018-03-22T08:17:39.040Z,3.80
2018-03-22T08:20:06.566Z,4.33
2018-03-22T08:22:34.063Z,4.40
2018-03-22T08:25:01.563Z,4.00
2018-03-22T08:27:29.944Z,4.20
2018-03-22T08:29:58.239Z,4.17
2018-03-22T08:32:26.503Z,4.30
2018-03-22T08:34:54.794Z,4.50
2018-03-22T08:37:23.092Z,4.93
2018-03-22T08:39:50.605Z,4.40
2018-03-22T08:42:18.107Z,4.27
2018-03-22T08:44:46.390Z,4.10
2018-03-22T08:47:14.670Z,4.27
2018-03-22T08:49:42.943Z,4.30
2018-03-22T08:52:11.240Z,4.20
2018-03-22T08:54:38.754Z,4.00
2018-03-22T08:57:06.266Z,4.20
2018-03-22T08:59:33.757Z,3.50
2018-03-22T09:02:01.241Z,4.20
2018-03-22T09:04:28.754Z,4.10
2018-03-22T09:06:56.235Z,4.10
2018-03-22T09:09:23.826Z,3.77
2018-03-22T09:11:51.339Z,3.97
2018-03-22T09:14:18.902Z,3.40
2018-03-22T09:16:46.374Z,3.60
2018-03-22T09:19:13.896Z,3.80
2018-03-22T09:21:42.222Z,4.00
2018-03-22T09:24:09.842Z,4.27
2018-03-22T09:26:42.954Z,3.87
2018-03-22T09:29:11.222Z,3.93
2018-03-22T09:31:39.512Z,3.47
2018-03-22T09:34:07.794Z,4.00
2018-03-22T09:36:36.055Z,4.50
2018-03-22T09:39:03.601Z,4.13
2018-03-22T09:41:31.866Z,4.00
2018-03-22T09:43:59.354Z,4.47
2018-03-22T09:46:26.856Z,4.13
2018-03-22T09:48:55.124Z,4.30
2018-03-22T09:51:22.663Z,4.70
2018-03-22T09:53:50.147Z,4.33
2018-03-22T09:56:17.746Z,4.40
2018-03-22T09:58:45.270Z,4.57
2018-03-22T10:01:12.759Z,4.70
2018-03-22T10:03:40.314Z,4.37
2018-03-22T10:06:07.879Z,4.43
2018-03-22T10:08:36.144Z,4.57
2018-03-22T10:11:03.645Z,4.53
2018-03-22T10:13:31.164Z,5.27
2018-03-22T10:15:58.682Z,5.13
2018-03-22T10:18:26.213Z,4.77
2018-03-22T10:20:54.487Z,4.60
2018-03-22T10:23:22.787Z,5.40
2018-03-22T10:25:50.329Z,4.73
2018-03-22T10:28:17.829Z,4.83
2018-03-22T10:30:45.331Z,5.10
2018-03-22T10:33:12.880Z,5.10
2018-03-22T10:35:40.415Z,5.07
2018-03-22T10:38:07.905Z,5.00
2018-03-22T10:40:35.403Z,4.33
2018-03-22T10:43:02.924Z,5.00
2018-03-22T10:45:30.419Z,4.57
2018-03-22T10:47:57.926Z,4.77
2018-03-22T10:50:25.524Z,4.70
2018-03-22T10:52:53.085Z,5.07
2018-03-22T10:55:20.616Z,4.90
2018-03-22T10:57:48.104Z,5.07
2018-03-22T11:00:21.191Z,5.10
2018-03-22T11:02:53.569Z,5.37
2018-03-22T11:05:21.078Z,5.63
2018-03-22T11:07:48.679Z,5.83
2018-03-22T11:10:16.166Z,5.67
2018-03-22T11:12:43.693Z,6.00
2018-03-22T11:15:11.171Z,5.83
2018-03-22T11:17:38.688Z,6.60
2018-03-22T11:20:06.199Z,5.90
2018-03-22T11:22:33.718Z,6.20
2018-03-22T11:25:01.232Z,5.80
2018-03-22T11:27:28.932Z,5.93
2018-03-22T11:29:56.390Z,6.27
2018-03-22T11:32:23.900Z,6.70
2018-03-22T11:34:51.394Z,6.40
2018-03-22T11:37:18.945Z,6.10
2018-03-22T11:39:46.443Z,6.60
2018-03-22T11:42:13.968Z,6.33
2018-03-22T11:44:41.788Z,6.80
2018-03-22T11:47:09.363Z,5.80
2018-03-22T11:49:36.858Z,6.43
2018-03-22T11:52:04.367Z,7.07
2018-03-22T11:54:31.865Z,6.63
2018-03-22T11:57:00.165Z,6.63
2018-03-22T11:59:27.660Z,6.57
2018-03-22T12:01:55.187Z,6.43
2018-03-22T12:04:23.443Z,6.30
2018-03-22T12:06:51.007Z,6.77
2018-03-22T12:09:18.494Z,6.60
2018-03-22T12:11:46.068Z,7.40
2018-03-22T12:14:13.555Z,6.90
2018-03-22T12:16:41.810Z,6.97
2018-03-22T12:19:09.323Z,6.60
2018-03-22T12:21:36.914Z,6.90
2018-03-22T12:24:04.411Z,6.67
2018-03-22T12:26:31.921Z,6.93
2018-03-22T12:28:59.443Z,7.20
2018-03-22T12:31:26.964Z,7.33
2018-03-22T12:33:54.539Z,6.60
2018-03-22T12:36:22.060Z,6.90
2018-03-22T12:38:49.551Z,6.90
2018-03-22T12:41:17.040Z,6.70
2018-03-22T12:43:44.628Z,6.73
2018-03-22T12:46:12.830Z,6.47
2018-03-22T12:48:40.360Z,6.77
2018-03-22T12:51:07.864Z,6.37
2018-03-22T12:53:35.346Z,6.53
2018-03-22T12:56:03.663Z,6.57
2018-03-22T12:58:31.171Z,6.30
2018-03-22T13:00:58.704Z,6.97
2018-03-22T13:03:26.204Z,6.33
2018-03-22T13:05:54.508Z,6.20
2018-03-22T13:08:22.893Z,6.80
2018-03-22T13:10:50.424Z,6.37
2018-03-22T13:13:17.926Z,6.23
2018-03-22T13:15:45.458Z,6.57
2018-03-22T13:18:13.797Z,6.40
2018-03-22T13:20:41.292Z,6.57
2018-03-22T13:23:08.790Z,6.27
2018-03-22T13:25:37.091Z,6.17
2018-03-22T13:28:04.591Z,6.27
2018-03-22T13:30:32.076Z,6.27
2018-03-22T13:32:59.586Z,6.93
2018-03-22T13:35:27.080Z,6.57
2018-03-22T13:37:54.602Z,6.33
2018-03-22T13:40:22.101Z,6.10
2018-03-22T13:42:50.391Z,6.43
2018-03-22T13:45:17.903Z,6.20
2018-03-22T13:47:45.410Z,7.20
2018-03-22T13:50:12.929Z,6.67
2018-03-22T13:52:40.413Z,8.00
2018-03-22T13:55:07.936Z,6.30
2018-03-22T13:57:36.207Z,6.20
2018-03-22T14:00:03.807Z,6.90
2018-03-22T14:02:32.279Z,6.27
2018-03-22T14:04:59.787Z,6.57
2018-03-22T14:07:27.293Z,6.30
2018-03-22T14:09:54.811Z,6.13
2018-03-22T14:12:22.351Z,5.83
2018-03-22T14:14:49.837Z,6.43
2018-03-22T14:17:17.380Z,5.93
2018-03-22T14:19:44.859Z,5.43
2018-03-22T14:22:12.382Z,5.70
2018-03-22T14:24:39.943Z,5.47
2018-03-22T14:27:07.394Z,5.50
2018-03-22T14:29:34.913Z,5.37
2018-03-22T14:32:02.415Z,4.63
2018-03-22T14:34:29.951Z,6.00
2018-03-22T14:36:57.445Z,5.13
2018-03-22T14:39:24.961Z,5.23
2018-03-22T14:41:52.474Z,5.10
2018-03-22T14:44:19.996Z,5.90
2018-03-22T14:46:47.536Z,5.33
2018-03-22T14:49:15.040Z,5.03
2018-03-22T14:51:42.554Z,4.87
2018-03-22T14:54:10.137Z,5.57
2018-03-22T14:56:37.700Z,4.57
2018-03-22T14:59:05.236Z,5.23
2018-03-22T15:01:32.764Z,5.70
2018-03-22T15:04:00.253Z,5.87
2018-03-22T15:06:27.769Z,4.93
2018-03-22T15:08:55.260Z,5.57
2018-03-22T15:11:22.765Z,5.87
2018-03-22T15:13:50.302Z,5.97
2018-03-22T15:16:17.787Z,6.37
2018-03-22T15:18:45.303Z,6.13
2018-03-22T15:21:12.834Z,6.43
2018-03-22T15:23:40.398Z,5.30
2018-03-22T15:26:07.913Z,6.50
2018-03-22T15:28:35.410Z,6.00
2018-03-22T15:31:02.920Z,6.50
2018-03-22T15:33:30.420Z,5.83
2018-03-22T15:35:57.940Z,5.37
2018-03-22T15:38:25.425Z,5.43
2018-03-22T15:40:52.912Z,5.87
2018-03-22T15:43:21.188Z,5.70
2018-03-22T15:45:48.685Z,5.60
2018-03-22T15:48:16.193Z,5.70
2018-03-22T15:50:43.778Z,6.30
2018-03-22T15:53:11.261Z,6.10
2018-03-22T15:55:38.771Z,5.87
2018-03-22T15:58:07.060Z,5.80
2018-03-22T16:00:34.582Z,5.53
2018-03-22T16:03:02.097Z,5.63
2018-03-22T16:05:30.382Z,5.90
2018-03-22T16:07:57.893Z,5.90
2018-03-22T16:10:25.459Z,5.80
2018-03-22T16:12:52.975Z,6.20
2018-03-22T16:15:21.227Z,5.50
2018-03-22T16:17:48.753Z,5.80
2018-03-22T16:20:16.259Z,5.80
2018-03-22T16:22:43.796Z,5.67
2018-03-22T16:25:11.307Z,6.03
2018-03-22T16:27:39.579Z,5.90
2018-03-22T16:30:07.873Z,6.37
2018-03-22T16:32:36.156Z,6.60
2018-03-22T16:35:04.461Z,6.37
2018-03-22T16:37:32.101Z,6.40
2018-03-22T16:40:00.362Z,6.33
2018-03-22T16:42:27.898Z,6.43
2018-03-22T16:44:55.401Z,6.30
2018-03-22T16:47:23.479Z,6.33
2018-03-22T16:49:50.983Z,5.87
2018-03-22T16:52:18.488Z,5.60
2018-03-22T16:54:46.015Z,7.90
2018-03-22T16:57:13.543Z,6.83
2018-03-22T16:59:41.060Z,6.27
2018-03-22T17:02:08.558Z,6.17
2018-03-22T17:04:36.051Z,6.10
2018-03-22T17:07:03.591Z,8.30
2018-03-22T17:09:31.103Z,7.87
2018-03-22T17:11:58.608Z,8.70
2018-03-22T17:14:26.125Z,9.73
2018-03-22T17:16:53.639Z,9.13
2018-03-22T17:19:21.297Z,9.00
2018-03-22T17:21:48.760Z,9.90
2018-03-22T17:24:16.270Z,9.17
2018-03-22T17:26:43.774Z,10.17
2018-03-22T17:29:12.253Z,10.37
2018-03-22T17:31:39.755Z,9.40
2018-03-22T17:34:07.349Z,10.30
2018-03-22T17:36:34.869Z,9.20
2018-03-22T17:39:03.157Z,8.87
2018-03-22T17:41:31.459Z,8.80
2018-03-22T17:43:59.000Z,9.73
2018-03-22T17:46:26.536Z,9.27
2018-03-22T17:48:54.097Z,10.00
2018-03-22T17:51:21.640Z,9.43
2018-03-22T17:53:49.179Z,10.33
2018-03-22T17:56:16.801Z,9.80
2018-03-22T17:58:44.329Z,8.67
2018-03-22T18:01:11.841Z,9.20
2018-03-22T18:03:39.425Z,9.10
2018-03-22T18:06:06.998Z,10.40
2018-03-22T18:08:34.508Z,8.80
2018-03-22T18:11:02.138Z,8.93
2018-03-22T18:13:29.672Z,9.63
2018-03-22T18:15:57.971Z,9.90
2018-03-22T18:18:25.464Z,10.00
2018-03-22T18:20:52.989Z,9.87
2018-03-22T18:23:20.510Z,10.63
2018-03-22T18:25:48.015Z,11.43
2018-03-22T18:28:15.544Z,11.57
2018-03-22T18:30:43.162Z,10.70
2018-03-22T18:33:10.682Z,11.20
2018-03-22T18:35:38.190Z,11.17
2018-03-22T18:38:05.689Z,10.40
2018-03-22T18:40:33.295Z,11.83
2018-03-22T18:43:00.808Z,12.10
2018-03-22T18:45:28.318Z,12.80
2018-03-22T18:47:55.874Z,13.47
2018-03-22T18:50:24.150Z,13.97
2018-03-22T18:52:52.509Z,13.33
2018-03-22T18:55:20.005Z,12.77
2018-03-22T18:57:47.516Z,12.17
2018-03-22T19:00:15.026Z,12.60
2018-03-22T19:02:42.527Z,11.57
2018-03-22T19:05:10.049Z,10.90
2018-03-22T19:07:37.569Z,10.67
2018-03-22T19:10:05.095Z,11.67
2018-03-22T19:12:32.791Z,10.63
2018-03-22T19:15:00.307Z,11.63
2018-03-22T19:17:27.817Z,12.27
2018-03-22T19:19:55.303Z,13.20
2018-03-22T19:22:22.795Z,12.97
2018-03-22T19:24:50.320Z,12.20
2018-03-22T19:27:17.830Z,11.30
2018-03-22T19:29:45.345Z,11.60
2018-03-22T19:32:12.850Z,12.23
2018-03-22T19:34:41.123Z,11.57
2018-03-22T19:37:08.751Z,11.70
2018-03-22T19:39:36.201Z,11.87
2018-03-22T19:42:03.703Z,11.77
2018-03-22T19:44:31.210Z,12.27
2018-03-22T19:46:58.708Z,11.90
2018-03-22T19:49:26.218Z,12.27
2018-03-22T19:51:54.492Z,12.10
2018-03-22T19:54:22.028Z,13.10
2018-03-22T19:56:49.544Z,12.27
2018-03-22T19:59:17.038Z,12.33
2018-03-22T20:01:44.638Z,12.67
2018-03-22T20:04:12.167Z,13.13
2018-03-22T20:06:39.716Z,13.77
2018-03-22T20:09:07.208Z,12.77
2018-03-22T20:11:34.738Z,12.27
2018-03-22T20:14:02.256Z,12.13
2018-03-22T20:16:29.756Z,12.07
2018-03-22T20:18:57.279Z,12.77
2018-03-22T20:21:24.768Z,14.10
2018-03-22T20:23:53.046Z,13.93
2018-03-22T20:26:21.310Z,13.77
2018-03-22T20:28:48.838Z,14.80
2018-03-22T20:31:16.332Z,14.40
2018-03-22T20:33:43.878Z,14.40
2018-03-22T20:36:12.181Z,15.00
2018-03-22T20:38:39.722Z,14.00
2018-03-22T20:41:07.258Z,15.10
2018-03-22T20:43:34.847Z,15.67
2018-03-22T20:46:02.375Z,16.10
2018-03-22T20:48:29.888Z,15.70
2018-03-22T20:50:57.402Z,17.23
2018-03-22T20:53:24.908Z,16.00
2018-03-22T20:55:52.423Z,17.67
2018-03-22T20:58:19.929Z,17.77
2018-03-22T21:00:48.239Z,17.50
2018-03-22T21:03:15.797Z,18.93
2018-03-22T21:05:43.341Z,19.77
2018-03-22T21:08:10.865Z,17.90
2018-03-22T21:10:38.416Z,20.50
2018-03-22T21:13:05.999Z,17.73
2018-03-22T21:15:33.496Z,19.87
2018-03-22T21:18:01.033Z,19.30
2018-03-22T21:20:28.549Z,24.57
2018-03-22T21:22:56.054Z,22.53
2018-03-22T21:25:23.567Z,21.40
2018-03-22T21:27:51.064Z,20.10
2018-03-22T21:30:18.564Z,21.23
2018-03-22T21:32:46.095Z,21.70
2018-03-22T21:35:13.602Z,20.67
2018-03-22T21:37:41.133Z,21.40
2018-03-22T21:40:08.648Z,23.33
2018-03-22T21:42:36.193Z,21.03
2018-03-22T21:45:04.539Z,21.80
2018-03-22T21:47:32.085Z,21.97
2018-03-22T21:49:59.601Z,22.23
2018-03-22T21:52:38.957Z,20.77
2018-03-22T21:55:06.451Z,21.30
2018-03-22T21:57:33.993Z,21.23
2018-03-22T22:00:01.548Z,20.60
2018-03-22T22:02:29.074Z,22.93
2018-03-22T22:04:56.629Z,22.53
2018-03-22T22:07:24.904Z,22.20
2018-03-22T22:09:52.472Z,22.03
2018-03-22T22:12:19.939Z,22.60
2018-03-22T22:14:47.441Z,20.73
2018-03-22T22:17:14.951Z,19.00
2018-03-22T22:19:42.492Z,19.67
2018-03-22T22:22:10.002Z,20.20
2018-03-22T22:24:37.577Z,21.10
2018-03-22T22:27:05.090Z,20.03
2018-03-22T22:29:32.636Z,20.27
2018-03-22T22:32:00.911Z,20.17
2018-03-22T22:34:28.420Z,19.97
2018-03-22T22:36:55.932Z,18.93
2018-03-22T22:39:23.418Z,20.83
2018-03-22T22:41:51.650Z,21.37
2018-03-22T22:44:19.192Z,21.10
2018-03-22T22:46:46.680Z,19.53
2018-03-22T22:49:14.199Z,20.60
2018-03-22T22:51:41.709Z,20.50
2018-03-22T22:54:09.205Z,20.27
2018-03-22T22:56:36.729Z,19.63
2018-03-22T22:59:04.278Z,18.33
2018-03-22T23:01:31.811Z,17.93
2018-03-22T23:03:59.303Z,18.07
2018-03-22T23:06:26.812Z,18.00
2018-03-22T23:08:54.339Z,17.20
2018-03-22T23:11:21.846Z,17.57
2018-03-22T23:13:49.368Z,16.80
2018-03-22T23:16:16.883Z,17.17
2018-03-22T23:18:44.375Z,18.03
2018-03-22T23:21:11.895Z,17.43
2018-03-22T23:23:39.401Z,15.97
2018-03-22T23:26:06.949Z,17.20
2018-03-22T23:28:34.457Z,17.67
2018-03-22T23:31:01.980Z,17.07
2018-03-22T23:33:29.512Z,16.70
2018-03-22T23:35:57.018Z,15.03
2018-03-22T23:38:24.560Z,15.93
2018-03-22T23:40:52.812Z,15.47
2018-03-22T23:43:20.310Z,15.10
2018-03-22T23:45:47.914Z,17.40
2018-03-22T23:48:15.415Z,13.97
2018-03-22T23:50:42.922Z,15.73
2018-03-22T23:53:10.422Z,16.07
2018-03-22T23:55:37.904Z,16.80
2018-03-22T23:58:06.192Z,15.53
